Terminal Aerodrome Forecast
Issued by NWS

Home | Current Version | Previous Version | Text Only | Print | Product List | Glossary On
Versions: 1 2 3 4 5 6 7 8 9 10 11 12 13 14 15 16 17
000
FTUS45 KPIH 021120
TAFSUN
TAF
KSUN 021120Z 0212/0312 31010KT P6SM FEW200
     FM021800 15010KT P6SM SCT150
     FM022000 20010G20KT P6SM SCT150
     FM030300 30008KT P6SM FEW120
      AMD LTD TO CLD VIS AND WIND TIL 021300=

USA.gov is the U.S. government's official web portal to all federal, state and local government web resources and services.